Gallup Mills, Vermont
Current Conditions -  °F | °C
As of 6:15 PM on Wednesday 17 Dec 2014 (Local Time) from KCDA Reporting Station
Light Rain Light Rain  
Wind Chill:   Ceiling: 900
Heat Index:   Visibility: 5mi
Dew Point:   Wind: 0mph
Humidity: 92%   Direction: NA
Pressure: 29.73"   Gusts: NA
Location:  44.5627°N, 71.7775°W
Report Text: KCDA 172315Z AUTO 00000KT 5SM -RA OVC009 02/01 A2973 RMK AO2 T00170006
Loading
Personal Weather Stations






























Interactive Weather Map New forecast layout! Learn more

10-Day Weather Forecast

Advertisements
Track Severe Weather on mobile